createdAt,value
2022-08-19T00:00:38.544Z,99720.16
2022-08-19T00:03:07.997Z,99723.16
2022-08-19T00:05:34.907Z,99711.00
2022-08-19T00:08:01.884Z,99698.28
2022-08-19T00:10:28.824Z,99695.28
2022-08-19T00:12:55.563Z,99697.53
2022-08-19T00:15:23.611Z,99690.56
2022-08-19T00:17:50.395Z,99697.88
2022-08-19T00:20:20.896Z,99690.66
2022-08-19T00:22:48.951Z,99688.63
2022-08-19T00:25:16.758Z,99683.34
2022-08-19T00:27:44.477Z,99674.41
2022-08-19T00:30:12.123Z,99678.22
2022-08-19T00:32:39.883Z,99687.84
2022-08-19T00:35:07.637Z,99682.09
2022-08-19T00:37:36.139Z,99680.16
2022-08-19T00:40:06.808Z,99678.66
2022-08-19T00:42:33.874Z,99666.69
2022-08-19T00:45:01.064Z,99664.63
2022-08-19T00:47:28.088Z,99661.84
2022-08-19T00:49:58.306Z,99658.13
2022-08-19T00:52:32.281Z,99658.53
2022-08-19T00:55:00.338Z,99659.63
2022-08-19T00:57:43.113Z,99657.87
2022-08-19T01:00:14.885Z,99659.59
2022-08-19T01:02:42.787Z,99651.41
2022-08-19T01:05:14.472Z,99651.47
2022-08-19T01:07:42.488Z,99632.63
2022-08-19T01:10:15.527Z,99641.44
2022-08-19T01:12:42.745Z,99640.03
2022-08-19T01:15:12.565Z,99641.59
2022-08-19T01:17:40.930Z,99656.38
2022-08-19T01:20:11.757Z,99657.66
2022-08-19T01:22:47.228Z,99658.06
2022-08-19T01:25:19.621Z,99657.03
2022-08-19T01:27:49.424Z,99656.06
2022-08-19T01:30:25.730Z,99646.09
2022-08-19T01:32:53.964Z,99643.53
2022-08-19T01:35:24.486Z,99636.88
2022-08-19T01:37:55.935Z,99636.19
2022-08-19T01:40:27.191Z,99627.63
2022-08-19T01:42:54.795Z,99633.25
2022-08-19T01:45:25.203Z,99637.00
2022-08-19T01:48:01.438Z,99636.94
2022-08-19T01:50:30.981Z,99631.66
2022-08-19T01:53:05.965Z,99638.19
2022-08-19T01:55:40.559Z,99655.59
2022-08-19T01:58:12.512Z,99665.25
2022-08-19T02:00:39.502Z,99660.50
2022-08-19T02:03:07.621Z,99648.28
2022-08-19T02:05:34.439Z,99650.41
2022-08-19T02:08:01.160Z,99655.12
2022-08-19T02:10:27.989Z,99665.41
2022-08-19T02:12:54.866Z,99663.03
2022-08-19T02:15:22.967Z,99674.69
2022-08-19T02:17:50.056Z,99685.19
2022-08-19T02:20:17.402Z,99687.69
2022-08-19T02:22:44.446Z,99691.44
2022-08-19T02:25:13.853Z,99700.25
2022-08-19T02:27:42.792Z,99707.44
2022-08-19T02:30:14.498Z,99698.84
2022-08-19T02:32:44.508Z,99693.72
2022-08-19T02:35:12.994Z,99672.63
2022-08-19T02:37:58.909Z,99662.34
2022-08-19T02:40:25.654Z,99663.66
2022-08-19T02:42:52.794Z,99653.16
2022-08-19T02:45:19.999Z,99647.09
2022-08-19T02:47:46.740Z,99650.06
2022-08-19T02:50:14.049Z,99646.97
2022-08-19T02:52:40.752Z,99650.47
2022-08-19T02:55:08.400Z,99639.06
2022-08-19T02:57:35.434Z,99649.13
2022-08-19T03:00:02.881Z,99651.19
2022-08-19T03:02:29.641Z,99655.25
2022-08-19T03:04:56.469Z,99647.72
2022-08-19T03:07:23.248Z,99650.00
2022-08-19T03:09:49.970Z,99647.38
2022-08-19T03:12:16.818Z,99642.87
2022-08-19T03:14:43.508Z,99641.34
2022-08-19T03:17:10.558Z,99645.56
2022-08-19T03:19:37.264Z,99645.34
2022-08-19T03:22:05.283Z,99639.19
2022-08-19T03:24:33.243Z,99643.34
2022-08-19T03:27:00.023Z,99645.56
2022-08-19T03:29:30.723Z,99641.75
2022-08-19T03:32:04.872Z,99643.13
2022-08-19T03:34:33.746Z,99635.97
2022-08-19T03:37:06.407Z,99637.38
2022-08-19T03:39:33.159Z,99634.06
2022-08-19T03:42:30.127Z,99624.53
2022-08-19T03:44:50.151Z,99618.88
2022-08-19T03:47:18.085Z,99633.81
2022-08-19T03:49:45.832Z,99631.19
2022-08-19T03:52:12.770Z,99635.28
2022-08-19T03:54:40.628Z,99627.31
2022-08-19T03:57:07.880Z,99630.09
2022-08-19T03:59:37.644Z,99630.13
2022-08-19T04:02:11.586Z,99631.84
2022-08-19T04:04:41.566Z,99621.00
2022-08-19T04:07:10.510Z,99618.50
2022-08-19T04:09:38.073Z,99618.50
2022-08-19T04:12:06.650Z,99615.97
2022-08-19T04:14:34.892Z,99621.56
2022-08-19T04:17:04.393Z,99623.78
2022-08-19T04:19:31.941Z,99633.75
2022-08-19T04:21:59.421Z,99627.66
2022-08-19T04:24:26.426Z,99626.87
2022-08-19T04:26:53.927Z,99631.28
2022-08-19T04:29:25.771Z,99641.66
2022-08-19T04:31:54.717Z,99638.75
2022-08-19T04:34:23.641Z,99649.63
2022-08-19T04:36:55.092Z,99638.97
2022-08-19T04:39:47.697Z,99633.91
2022-08-19T04:42:33.851Z,99647.78
2022-08-19T04:45:00.732Z,99652.16
2022-08-19T04:47:48.038Z,99654.81
2022-08-19T04:50:15.789Z,99666.59
2022-08-19T04:52:44.052Z,99672.47
2022-08-19T04:55:12.370Z,99666.06
2022-08-19T04:57:41.301Z,99668.91
2022-08-19T05:00:10.668Z,99677.25
2022-08-19T05:02:38.374Z,99682.13
2022-08-19T05:05:07.748Z,99683.19
2022-08-19T05:07:35.263Z,99687.50
2022-08-19T05:10:02.308Z,99680.75
2022-08-19T05:12:30.054Z,99680.63
2022-08-19T05:14:59.174Z,99675.22
2022-08-19T05:17:31.016Z,99678.66
2022-08-19T05:20:18.989Z,99678.16
2022-08-19T05:22:48.384Z,99672.44
2022-08-19T05:25:20.253Z,99654.31
2022-08-19T05:27:47.568Z,99650.56
2022-08-19T05:30:14.626Z,99652.25
2022-08-19T05:32:41.981Z,99651.25
2022-08-19T05:35:09.334Z,99654.03
2022-08-19T05:37:36.089Z,99659.56
2022-08-19T05:40:04.138Z,99674.91
2022-08-19T05:42:31.695Z,99684.16
2022-08-19T05:44:58.995Z,99687.03
2022-08-19T05:47:25.803Z,99686.13
2022-08-19T05:49:52.529Z,99698.13
2022-08-19T05:52:25.705Z,99702.25
2022-08-19T05:54:56.363Z,99707.12
2022-08-19T05:57:24.696Z,99711.97
2022-08-19T05:59:58.304Z,99711.63
2022-08-19T06:02:29.721Z,99704.16
2022-08-19T06:04:56.744Z,99710.31
2022-08-19T06:07:23.919Z,99710.28
2022-08-19T06:09:59.626Z,99721.50
2022-08-19T06:12:36.108Z,99728.81
2022-08-19T06:15:14.638Z,99733.75
2022-08-19T06:17:42.873Z,99734.78
2022-08-19T06:20:14.582Z,99739.00
2022-08-19T06:22:45.090Z,99739.44
2022-08-19T06:25:13.484Z,99741.03
2022-08-19T06:27:58.685Z,99741.13
2022-08-19T06:30:28.109Z,99729.56
2022-08-19T06:32:55.050Z,99727.97
2022-08-19T06:35:21.838Z,99725.41
2022-08-19T06:37:48.771Z,99722.78
2022-08-19T06:40:16.066Z,99725.84
2022-08-19T06:42:54.366Z,99708.53
2022-08-19T06:45:24.854Z,99707.81
2022-08-19T06:47:55.286Z,99697.38
2022-08-19T06:50:23.113Z,99711.00
2022-08-19T06:52:51.996Z,99707.19
2022-08-19T06:55:20.254Z,99714.03
2022-08-19T06:57:47.601Z,99718.41
2022-08-19T07:00:15.130Z,99716.19
2022-08-19T07:02:48.160Z,99722.28
2022-08-19T07:05:23.036Z,99707.72
2022-08-19T07:07:49.857Z,99700.16
2022-08-19T07:10:18.336Z,99696.16
2022-08-19T07:12:45.558Z,99697.41
2022-08-19T07:15:14.000Z,99695.97
2022-08-19T07:17:41.781Z,99690.06
2022-08-19T07:20:10.132Z,99691.53
2022-08-19T07:22:40.903Z,99683.03
2022-08-19T07:25:10.017Z,99686.44
2022-08-19T07:27:39.541Z,99695.91
2022-08-19T07:30:07.944Z,99694.16
2022-08-19T07:32:38.640Z,99686.81
2022-08-19T07:35:07.279Z,99682.66
2022-08-19T07:37:36.586Z,99675.50
2022-08-19T07:40:05.560Z,99680.53
2022-08-19T07:42:32.384Z,99681.53
2022-08-19T07:45:00.116Z,99688.94
2022-08-19T07:47:48.841Z,99694.59
2022-08-19T07:50:15.919Z,99687.44
2022-08-19T07:52:45.385Z,99699.50
2022-08-19T07:55:41.708Z,99685.00
2022-08-19T07:58:06.246Z,99691.31
2022-08-19T08:00:33.854Z,99700.59
2022-08-19T08:03:00.733Z,99710.97
2022-08-19T08:05:46.177Z,99715.19
2022-08-19T08:08:32.269Z,99717.06
2022-08-19T08:11:00.282Z,99728.63
2022-08-19T08:13:28.198Z,99738.88
2022-08-19T08:15:56.890Z,99729.38
2022-08-19T08:18:27.653Z,99727.25
2022-08-19T08:20:55.967Z,99714.56
2022-08-19T08:23:26.990Z,99711.34
2022-08-19T08:25:57.713Z,99704.88
2022-08-19T08:28:26.247Z,99701.34
2022-08-19T08:30:58.249Z,99711.72
2022-08-19T08:33:33.991Z,99709.00
2022-08-19T08:36:09.217Z,99720.06
2022-08-19T08:38:39.728Z,99715.06
2022-08-19T08:41:38.280Z,99716.25
2022-08-19T08:44:05.988Z,99727.66
2022-08-19T08:46:35.752Z,99732.94
2022-08-19T08:49:37.438Z,99722.75
2022-08-19T08:52:11.022Z,99723.66
2022-08-19T08:54:49.106Z,99726.97
2022-08-19T08:57:40.837Z,99731.44
2022-08-19T09:00:16.321Z,99728.88
2022-08-19T09:02:44.499Z,99730.09
2022-08-19T09:05:25.942Z,99722.91
2022-08-19T09:08:09.907Z,99732.56
2022-08-19T09:10:55.317Z,99732.09
2022-08-19T09:13:37.937Z,99738.03
2022-08-19T09:16:10.768Z,99739.66
2022-08-19T09:18:45.743Z,99742.84
2022-08-19T09:21:12.975Z,99739.03
2022-08-19T09:23:39.854Z,99735.91
2022-08-19T09:26:16.506Z,99725.09
2022-08-19T09:28:48.282Z,99739.66
2022-08-19T09:31:19.568Z,99739.16
2022-08-19T09:33:47.378Z,99739.09
2022-08-19T09:36:29.556Z,99744.88
2022-08-19T09:39:01.878Z,99753.56
2022-08-19T09:41:29.791Z,99757.00
2022-08-19T09:43:59.441Z,99757.00
2022-08-19T09:46:29.409Z,99758.63
2022-08-19T09:49:03.054Z,99767.00
2022-08-19T09:51:35.079Z,99762.47
2022-08-19T09:54:05.780Z,99757.28
2022-08-19T09:56:34.059Z,99753.81
2022-08-19T09:59:02.662Z,99749.97
2022-08-19T10:01:32.434Z,99741.37
2022-08-19T10:04:06.384Z,99751.22
2022-08-19T10:06:46.349Z,99752.78
2022-08-19T10:09:15.368Z,99750.66
2022-08-19T10:11:52.543Z,99757.50
2022-08-19T10:14:24.816Z,99744.56
2022-08-19T10:16:52.985Z,99740.56
2022-08-19T10:19:25.571Z,99737.41
2022-08-19T10:21:54.127Z,99741.00
2022-08-19T10:24:21.749Z,99748.81
2022-08-19T10:26:57.373Z,99755.13
2022-08-19T10:29:31.907Z,99760.97
2022-08-19T10:32:03.310Z,99773.09
2022-08-19T10:34:31.681Z,99772.66
2022-08-19T10:37:00.886Z,99773.28
2022-08-19T10:39:32.825Z,99782.78
2022-08-19T10:42:08.471Z,99790.66
2022-08-19T10:44:36.659Z,99785.53
2022-08-19T10:47:05.068Z,99786.91
2022-08-19T10:50:11.683Z,99793.56
2022-08-19T10:52:39.861Z,99795.03
2022-08-19T10:55:38.244Z,99812.69
2022-08-19T10:58:05.181Z,99838.97
2022-08-19T11:00:32.692Z,99861.53
2022-08-19T11:02:59.717Z,99878.28
2022-08-19T11:05:26.628Z,99889.50
2022-08-19T11:07:53.893Z,99892.38
2022-08-19T11:10:22.108Z,99910.25
2022-08-19T11:12:49.487Z,99922.34
2022-08-19T11:15:17.065Z,99942.91
2022-08-19T11:17:44.893Z,99961.50
2022-08-19T11:20:15.982Z,99960.06
2022-08-19T11:22:43.353Z,99963.22
2022-08-19T11:25:12.170Z,99972.66
2022-08-19T11:27:43.357Z,99970.87
2022-08-19T11:30:12.878Z,99976.59
2022-08-19T11:32:43.589Z,99969.16
2022-08-19T11:35:14.775Z,99965.53
2022-08-19T11:37:41.832Z,99961.00
2022-08-19T11:40:09.451Z,99948.97
2022-08-19T11:42:54.922Z,99929.69
2022-08-19T11:45:21.768Z,99929.19
2022-08-19T11:47:48.947Z,99935.94
2022-08-19T11:50:18.904Z,99936.91
2022-08-19T11:52:46.855Z,99952.53
2022-08-19T11:55:15.241Z,99971.66
2022-08-19T11:57:44.854Z,99977.28
2022-08-19T12:00:13.966Z,99970.37
2022-08-19T12:02:41.189Z,99980.94
2022-08-19T12:05:12.294Z,99969.75
2022-08-19T12:07:40.827Z,99965.06
2022-08-19T12:10:08.362Z,99963.03
2022-08-19T12:12:35.897Z,99955.06
2022-08-19T12:15:03.516Z,99910.75
2022-08-19T12:17:31.990Z,99905.12
2022-08-19T12:19:58.735Z,99903.63
2022-08-19T12:22:25.732Z,99948.25
2022-08-19T12:24:54.409Z,99948.44
2022-08-19T12:27:31.971Z,99901.63
2022-08-19T12:30:09.024Z,99909.56
2022-08-19T12:32:36.642Z,99907.38
2022-08-19T12:35:04.042Z,99890.75
2022-08-19T12:37:31.142Z,99849.69
2022-08-19T12:39:57.945Z,99873.50
2022-08-19T12:42:25.396Z,99883.69
2022-08-19T12:44:52.928Z,99880.16
2022-08-19T12:47:20.461Z,99878.31
2022-08-19T12:49:55.118Z,99863.22
2022-08-19T12:52:26.904Z,99861.63
2022-08-19T12:54:55.870Z,99867.00
2022-08-19T12:57:32.179Z,99885.91
2022-08-19T13:00:14.800Z,99905.00
2022-08-19T13:02:47.746Z,99885.81
2022-08-19T13:05:17.238Z,99849.88
2022-08-19T13:07:46.977Z,99849.72
2022-08-19T13:10:16.939Z,99843.78
2022-08-19T13:12:45.035Z,99849.41
2022-08-19T13:15:12.936Z,99812.03
2022-08-19T13:17:42.525Z,99781.28
2022-08-19T13:20:11.523Z,99799.66
2022-08-19T13:22:39.083Z,99813.28
2022-08-19T13:25:07.554Z,99831.66
2022-08-19T13:27:34.823Z,99811.63
2022-08-19T13:30:20.739Z,99795.72
2022-08-19T13:33:06.501Z,99805.22
2022-08-19T13:35:33.661Z,99803.59
2022-08-19T13:38:01.926Z,99792.56
2022-08-19T13:40:30.216Z,99772.94
2022-08-19T13:42:57.099Z,99747.13
2022-08-19T13:45:25.986Z,99749.66
2022-08-19T13:47:59.099Z,99744.69
2022-08-19T13:50:30.020Z,99746.66
2022-08-19T13:52:57.504Z,99757.37
2022-08-19T13:55:25.425Z,99758.47
2022-08-19T13:57:58.618Z,99754.81
2022-08-19T14:00:27.667Z,99740.06
2022-08-19T14:02:56.970Z,99738.12
2022-08-19T14:05:24.191Z,99735.50
2022-08-19T14:07:51.672Z,99748.34
2022-08-19T14:10:19.960Z,99735.81
2022-08-19T14:12:47.527Z,99732.50
2022-08-19T14:15:15.821Z,99733.63
2022-08-19T14:17:47.968Z,99718.41
2022-08-19T14:20:18.581Z,99718.22
2022-08-19T14:22:47.299Z,99722.56
2022-08-19T14:25:19.571Z,99723.28
2022-08-19T14:27:46.603Z,99713.25
2022-08-19T14:30:16.944Z,99711.78
2022-08-19T14:32:46.939Z,99699.97
2022-08-19T14:35:15.974Z,99701.25
2022-08-19T14:37:45.722Z,99692.03
2022-08-19T14:40:15.958Z,99693.44
2022-08-19T14:42:44.048Z,99691.25
2022-08-19T14:45:12.936Z,99685.31
2022-08-19T14:47:40.799Z,99669.34
2022-08-19T14:50:10.621Z,99679.06
2022-08-19T14:52:49.259Z,99679.81
2022-08-19T14:55:19.711Z,99674.72
2022-08-19T14:57:46.805Z,99684.38
2022-08-19T15:00:14.566Z,99669.34
2022-08-19T15:02:42.828Z,99675.19
2022-08-19T15:05:10.151Z,99669.19
2022-08-19T15:07:38.442Z,99671.38
2022-08-19T15:10:08.020Z,99668.78
2022-08-19T15:12:41.286Z,99679.25
2022-08-19T15:15:10.066Z,99684.09
2022-08-19T15:17:46.197Z,99677.62
2022-08-19T15:20:17.915Z,99678.72
2022-08-19T15:22:45.203Z,99668.03
2022-08-19T15:25:14.543Z,99678.78
2022-08-19T15:27:41.931Z,99676.53
2022-08-19T15:30:10.814Z,99668.25
2022-08-19T15:32:38.907Z,99671.78
2022-08-19T15:35:07.299Z,99660.50
2022-08-19T15:37:37.107Z,99668.53
2022-08-19T15:40:06.215Z,99652.28
2022-08-19T15:42:33.454Z,99644.09
2022-08-19T15:45:00.588Z,99640.56
2022-08-19T15:47:34.715Z,99640.47
2022-08-19T15:50:10.658Z,99650.53
2022-08-19T15:52:49.332Z,99637.31
2022-08-19T15:55:32.541Z,99623.50
2022-08-19T15:58:28.620Z,99631.66
2022-08-19T16:01:20.590Z,99631.88
2022-08-19T16:04:11.071Z,99637.22
2022-08-19T16:06:44.639Z,99642.75
2022-08-19T16:09:11.648Z,99627.03
2022-08-19T16:11:39.699Z,99631.41
2022-08-19T16:14:09.744Z,99625.19
2022-08-19T16:16:38.566Z,99626.59
2022-08-19T16:19:10.631Z,99619.53
2022-08-19T16:21:41.740Z,99611.56
2022-08-19T16:24:13.076Z,99602.28
2022-08-19T16:26:41.379Z,99604.00
2022-08-19T16:29:12.034Z,99596.66
2022-08-19T16:31:42.194Z,99580.91
2022-08-19T16:34:09.263Z,99573.75
2022-08-19T16:36:36.585Z,99560.72
2022-08-19T16:39:03.947Z,99563.53
2022-08-19T16:41:30.708Z,99565.16
2022-08-19T16:43:57.536Z,99567.34
2022-08-19T16:46:27.030Z,99561.91
2022-08-19T16:48:54.551Z,99566.69
2022-08-19T16:51:23.016Z,99574.00
2022-08-19T16:53:53.069Z,99577.38
2022-08-19T16:56:21.387Z,99585.59
2022-08-19T16:58:50.374Z,99590.91
2022-08-19T17:01:18.696Z,99605.47
2022-08-19T17:03:46.918Z,99615.28
2022-08-19T17:06:20.167Z,99621.75
2022-08-19T17:08:50.208Z,99632.63
2022-08-19T17:11:19.491Z,99642.25
2022-08-19T17:13:47.654Z,99652.38
2022-08-19T17:16:16.304Z,99659.69
2022-08-19T17:18:43.399Z,99660.81
2022-08-19T17:21:10.207Z,99660.38
2022-08-19T17:23:42.999Z,99673.56
2022-08-19T17:26:15.906Z,99683.56
2022-08-19T17:28:49.905Z,99688.09
2022-08-19T17:31:18.793Z,99690.94
2022-08-19T17:33:48.225Z,99690.66
2022-08-19T17:36:21.914Z,99692.78
2022-08-19T17:38:49.300Z,99703.91
2022-08-19T17:41:16.768Z,99690.63
2022-08-19T17:43:44.264Z,99678.38
2022-08-19T17:46:18.290Z,99680.53
2022-08-19T17:48:55.389Z,99670.69
2022-08-19T17:51:40.407Z,99680.03
2022-08-19T17:54:12.482Z,99676.50
2022-08-19T17:56:39.847Z,99693.53
2022-08-19T17:59:10.862Z,99692.81
2022-08-19T18:01:51.982Z,99693.78
2022-08-19T18:04:21.443Z,99691.25
2022-08-19T18:06:53.331Z,99685.25
2022-08-19T18:09:41.650Z,99686.53
2022-08-19T18:12:12.529Z,99700.66
2022-08-19T18:14:41.342Z,99701.19
2022-08-19T18:17:17.433Z,99695.63
2022-08-19T18:19:44.523Z,99707.91
2022-08-19T18:22:31.686Z,99716.25
2022-08-19T18:24:59.317Z,99727.22
2022-08-19T18:27:28.227Z,99739.38
2022-08-19T18:29:59.744Z,99755.88
2022-08-19T18:32:34.072Z,99772.50
2022-08-19T18:35:11.359Z,99767.09
2022-08-19T18:37:39.453Z,99773.91
2022-08-19T18:40:27.714Z,99769.50
2022-08-19T18:43:13.924Z,99778.19
2022-08-19T18:46:01.658Z,99782.88
2022-08-19T18:48:47.942Z,99783.03
2022-08-19T18:51:17.205Z,99789.75
2022-08-19T18:53:47.132Z,99779.87
2022-08-19T18:56:16.210Z,99798.13
2022-08-19T18:58:43.611Z,99802.91
2022-08-19T19:01:25.303Z,99796.97
2022-08-19T19:03:54.553Z,99796.69
2022-08-19T19:06:24.788Z,99805.94
2022-08-19T19:08:54.392Z,99811.88
2022-08-19T19:11:32.827Z,99804.22
2022-08-19T19:14:04.288Z,99804.72
2022-08-19T19:16:32.332Z,99807.44
2022-08-19T19:19:00.838Z,99811.31
2022-08-19T19:21:31.845Z,99814.47
2022-08-19T19:24:01.124Z,99809.22
2022-08-19T19:26:28.506Z,99809.47
2022-08-19T19:28:55.615Z,99811.28
2022-08-19T19:31:27.026Z,99819.44
2022-08-19T19:33:55.662Z,99809.41
2022-08-19T19:36:23.124Z,99813.34
2022-08-19T19:38:49.941Z,99804.09
2022-08-19T19:41:20.367Z,99819.34
2022-08-19T19:43:56.644Z,99830.06
2022-08-19T19:46:33.341Z,99828.38
2022-08-19T19:49:02.297Z,99825.16
2022-08-19T19:51:29.592Z,99842.72
2022-08-19T19:54:00.139Z,99840.34
2022-08-19T19:56:26.966Z,99850.22
2022-08-19T19:58:54.145Z,99845.72
2022-08-19T20:01:24.714Z,99836.13
2022-08-19T20:03:54.039Z,99832.03
2022-08-19T20:06:21.408Z,99827.97
2022-08-19T20:09:06.678Z,99838.84
2022-08-19T20:11:44.139Z,99845.34
2022-08-19T20:14:15.871Z,99847.53
2022-08-19T20:16:46.411Z,99863.37
2022-08-19T20:19:17.149Z,99865.69
2022-08-19T20:21:49.515Z,99869.13
2022-08-19T20:24:22.818Z,99881.81
2022-08-19T20:26:50.359Z,99885.06
2022-08-19T20:29:38.908Z,99883.41
2022-08-19T20:32:08.457Z,99882.41
2022-08-19T20:34:35.189Z,99910.91
2022-08-19T20:37:02.223Z,99918.28
2022-08-19T20:39:31.939Z,99926.19
2022-08-19T20:41:58.943Z,99934.16
2022-08-19T20:44:25.800Z,99938.56
2022-08-19T20:46:54.539Z,99935.34
2022-08-19T20:49:21.679Z,99928.06
2022-08-19T20:51:49.031Z,99913.97
2022-08-19T20:54:15.857Z,99898.12
2022-08-19T20:56:42.779Z,99888.69
2022-08-19T20:59:10.714Z,99899.12
2022-08-19T21:01:37.738Z,99891.44
2022-08-19T21:04:04.824Z,99884.66
2022-08-19T21:06:31.532Z,99892.59
2022-08-19T21:09:00.084Z,99887.41
2022-08-19T21:11:27.934Z,99887.97
2022-08-19T21:13:54.746Z,99878.78
2022-08-19T21:16:22.236Z,99869.66
2022-08-19T21:18:49.196Z,99866.19
2022-08-19T21:21:16.163Z,99867.88
2022-08-19T21:23:44.077Z,99865.00
2022-08-19T21:26:11.521Z,99867.22
2022-08-19T21:28:38.252Z,99862.44
2022-08-19T21:31:07.142Z,99863.28
2022-08-19T21:33:33.885Z,99859.62
2022-08-19T21:36:00.743Z,99860.28
2022-08-19T21:38:27.754Z,99856.44
2022-08-19T21:40:55.497Z,99863.34
2022-08-19T21:43:22.699Z,99865.84
2022-08-19T21:45:50.635Z,99865.28
2022-08-19T21:48:17.652Z,99859.84
2022-08-19T21:50:46.076Z,99860.12
2022-08-19T21:53:19.276Z,99837.28
2022-08-19T21:55:53.524Z,99839.84
2022-08-19T21:58:29.943Z,99837.19
2022-08-19T22:01:02.191Z,99835.19
2022-08-19T22:03:29.211Z,99839.09
2022-08-19T22:05:56.049Z,99839.72
2022-08-19T22:08:22.750Z,99835.88
2022-08-19T22:10:49.933Z,99840.72
2022-08-19T22:13:18.434Z,99854.88
2022-08-19T22:15:52.010Z,99850.31
2022-08-19T22:18:19.133Z,99859.78
2022-08-19T22:20:46.515Z,99878.94
2022-08-19T22:23:13.893Z,99891.19
2022-08-19T22:25:45.177Z,99898.56
2022-08-19T22:28:13.903Z,99904.53
2022-08-19T22:30:43.076Z,99915.69
2022-08-19T22:33:13.623Z,99918.38
2022-08-19T22:35:41.979Z,99894.91
2022-08-19T22:38:10.485Z,99877.66
2022-08-19T22:40:41.307Z,99857.97
2022-08-19T22:43:14.501Z,99865.66
2022-08-19T22:45:42.581Z,99871.59
2022-08-19T22:48:11.486Z,99885.09
2022-08-19T22:50:40.541Z,99901.63
2022-08-19T22:53:09.023Z,99909.13
2022-08-19T22:55:38.208Z,99933.06
2022-08-19T22:58:05.816Z,99945.13
2022-08-19T23:00:33.708Z,99945.19
2022-08-19T23:03:01.742Z,99941.91
2022-08-19T23:05:29.600Z,99957.59
2022-08-19T23:07:58.687Z,99965.72
2022-08-19T23:10:29.153Z,99979.41
2022-08-19T23:12:59.955Z,99971.34
2022-08-19T23:15:30.687Z,99993.63
2022-08-19T23:17:59.810Z,99970.44
2022-08-19T23:20:29.865Z,99962.91
2022-08-19T23:22:57.737Z,99945.31
2022-08-19T23:25:28.483Z,99933.41
2022-08-19T23:28:14.396Z,99919.78
2022-08-19T23:30:44.666Z,99916.28
2022-08-19T23:33:24.280Z,99909.09
2022-08-19T23:35:57.209Z,99883.44
2022-08-19T23:38:24.990Z,99833.13
2022-08-19T23:40:54.263Z,99810.66
2022-08-19T23:43:25.079Z,99797.88
2022-08-19T23:45:53.900Z,99785.44
2022-08-19T23:48:24.964Z,99766.72
2022-08-19T23:50:53.892Z,99760.00
2022-08-19T23:53:21.262Z,99747.47
2022-08-19T23:55:49.037Z,99741.63
2022-08-19T23:58:17.535Z,99735.78
